sensor_id;sensor_type;location;lat;lon;timestamp;temperature;humidity
22153;DHT22;11242;50.536;12.688;2022-12-07T00:02:21;0.70;99.90
22153;DHT22;11242;50.536;12.688;2022-12-07T00:04:49;0.70;99.90
22153;DHT22;11242;50.536;12.688;2022-12-07T00:07:14;0.70;99.90
22153;DHT22;11242;50.536;12.688;2022-12-07T00:09:40;0.70;99.90
22153;DHT22;11242;50.536;12.688;2022-12-07T00:12:07;0.70;99.90
22153;DHT22;11242;50.536;12.688;2022-12-07T00:14:33;0.70;99.90
22153;DHT22;11242;50.536;12.688;2022-12-07T00:17:02;0.70;99.90
22153;DHT22;11242;50.536;12.688;2022-12-07T00:19:27;0.70;99.90
22153;DHT22;11242;50.536;12.688;2022-12-07T00:21:53;0.70;99.90
22153;DHT22;11242;50.536;12.688;2022-12-07T00:24:18;0.70;99.90
22153;DHT22;11242;50.536;12.688;2022-12-07T00:26:44;0.70;99.90
22153;DHT22;11242;50.536;12.688;2022-12-07T00:29:20;0.60;99.90
22153;DHT22;11242;50.536;12.688;2022-12-07T00:31:46;0.60;99.90
22153;DHT22;11242;50.536;12.688;2022-12-07T00:34:14;0.60;99.90
22153;DHT22;11242;50.536;12.688;2022-12-07T00:36:40;0.70;99.90
22153;DHT22;11242;50.536;12.688;2022-12-07T00:39:06;0.60;99.90
22153;DHT22;11242;50.536;12.688;2022-12-07T00:41:31;0.60;99.90
22153;DHT22;11242;50.536;12.688;2022-12-07T00:43:57;0.60;99.90
22153;DHT22;11242;50.536;12.688;2022-12-07T00:46:24;0.60;99.90
22153;DHT22;11242;50.536;12.688;2022-12-07T00:48:51;0.60;99.90
22153;DHT22;11242;50.536;12.688;2022-12-07T00:51:18;0.60;99.90
22153;DHT22;11242;50.536;12.688;2022-12-07T00:53:44;0.60;99.90
22153;DHT22;11242;50.536;12.688;2022-12-07T00:56:14;0.60;99.90
22153;DHT22;11242;50.536;12.688;2022-12-07T00:58:40;0.60;99.90
22153;DHT22;11242;50.536;12.688;2022-12-07T01:01:08;0.60;99.90
22153;DHT22;11242;50.536;12.688;2022-12-07T01:03:34;0.60;99.90
22153;DHT22;11242;50.536;12.688;2022-12-07T01:06:00;0.50;99.90
22153;DHT22;11242;50.536;12.688;2022-12-07T01:08:27;0.50;99.90
22153;DHT22;11242;50.536;12.688;2022-12-07T01:11:07;0.50;99.90
22153;DHT22;11242;50.536;12.688;2022-12-07T01:13:34;0.50;99.90
22153;DHT22;11242;50.536;12.688;2022-12-07T01:16:03;0.50;99.90
22153;DHT22;11242;50.536;12.688;2022-12-07T01:18:30;0.50;99.90
22153;DHT22;11242;50.536;12.688;2022-12-07T01:21:09;0.50;99.90
22153;DHT22;11242;50.536;12.688;2022-12-07T01:23:35;0.50;99.90
22153;DHT22;11242;50.536;12.688;2022-12-07T01:26:06;0.40;99.90
22153;DHT22;11242;50.536;12.688;2022-12-07T01:28:32;0.40;99.90
22153;DHT22;11242;50.536;12.688;2022-12-07T01:31:10;0.50;99.90
22153;DHT22;11242;50.536;12.688;2022-12-07T01:33:44;0.50;99.90
22153;DHT22;11242;50.536;12.688;2022-12-07T01:38:39;0.50;99.90
22153;DHT22;11242;50.536;12.688;2022-12-07T01:41:05;0.50;99.90
22153;DHT22;11242;50.536;12.688;2022-12-07T01:43:32;0.50;99.90
22153;DHT22;11242;50.536;12.688;2022-12-07T01:45:59;0.50;99.90
22153;DHT22;11242;50.536;12.688;2022-12-07T01:48:28;0.50;99.90
22153;DHT22;11242;50.536;12.688;2022-12-07T01:51:04;0.50;99.90
22153;DHT22;11242;50.536;12.688;2022-12-07T01:53:30;0.40;99.90
22153;DHT22;11242;50.536;12.688;2022-12-07T01:56:06;0.30;99.90
22153;DHT22;11242;50.536;12.688;2022-12-07T01:58:33;0.20;99.90
22153;DHT22;11242;50.536;12.688;2022-12-07T02:01:00;0.00;99.90
22153;DHT22;11242;50.536;12.688;2022-12-07T02:03:31;-0.10;99.90
22153;DHT22;11242;50.536;12.688;2022-12-07T02:05:58;-0.20;99.90
22153;DHT22;11242;50.536;12.688;2022-12-07T02:08:25;-0.30;99.90
22153;DHT22;11242;50.536;12.688;2022-12-07T02:10:51;-0.30;99.90
22153;DHT22;11242;50.536;12.688;2022-12-07T02:13:21;-0.30;99.90
22153;DHT22;11242;50.536;12.688;2022-12-07T02:21:06;-0.30;99.90
22153;DHT22;11242;50.536;12.688;2022-12-07T02:26:32;-0.30;99.90
22153;DHT22;11242;50.536;12.688;2022-12-07T02:34:45;-0.50;99.90
22153;DHT22;11242;50.536;12.688;2022-12-07T02:37:33;-0.70;99.90
22153;DHT22;11242;50.536;12.688;2022-12-07T02:42:51;-0.90;99.90
22153;DHT22;11242;50.536;12.688;2022-12-07T02:45:21;-1.20;99.90
22153;DHT22;11242;50.536;12.688;2022-12-07T02:47:51;-1.30;99.90
22153;DHT22;11242;50.536;12.688;2022-12-07T02:50:20;-1.30;99.90
22153;DHT22;11242;50.536;12.688;2022-12-07T02:52:46;-1.30;99.90
22153;DHT22;11242;50.536;12.688;2022-12-07T02:55:13;-1.20;99.90
22153;DHT22;11242;50.536;12.688;2022-12-07T03:00:26;-1.10;99.90
22153;DHT22;11242;50.536;12.688;2022-12-07T03:05:49;-1.20;99.90
22153;DHT22;11242;50.536;12.688;2022-12-07T03:08:33;-1.20;99.90
22153;DHT22;11242;50.536;12.688;2022-12-07T03:11:08;-1.30;99.90
22153;DHT22;11242;50.536;12.688;2022-12-07T03:13:48;-1.20;99.90
22153;DHT22;11242;50.536;12.688;2022-12-07T03:16:21;-1.20;99.90
22153;DHT22;11242;50.536;12.688;2022-12-07T03:21:20;-1.10;99.90
22153;DHT22;11242;50.536;12.688;2022-12-07T03:23:51;-1.10;99.90
22153;DHT22;11242;50.536;12.688;2022-12-07T03:26:18;-1.10;99.90
22153;DHT22;11242;50.536;12.688;2022-12-07T03:28:49;-1.20;99.90
22153;DHT22;11242;50.536;12.688;2022-12-07T03:31:23;-1.20;99.90
22153;DHT22;11242;50.536;12.688;2022-12-07T03:34:21;-1.30;99.90
22153;DHT22;11242;50.536;12.688;2022-12-07T03:37:08;-1.30;99.90
22153;DHT22;11242;50.536;12.688;2022-12-07T03:42:24;-1.00;99.90
22153;DHT22;11242;50.536;12.688;2022-12-07T03:44:50;-0.80;99.90
22153;DHT22;11242;50.536;12.688;2022-12-07T03:47:20;-0.70;99.90
22153;DHT22;11242;50.536;12.688;2022-12-07T03:49:53;-0.60;99.90
22153;DHT22;11242;50.536;12.688;2022-12-07T03:52:42;-0.50;99.90
22153;DHT22;11242;50.536;12.688;2022-12-07T03:55:14;-0.50;99.90
22153;DHT22;11242;50.536;12.688;2022-12-07T03:57:43;-0.40;99.90
22153;DHT22;11242;50.536;12.688;2022-12-07T04:00:10;-0.30;99.90
22153;DHT22;11242;50.536;12.688;2022-12-07T04:02:40;-0.30;99.90
22153;DHT22;11242;50.536;12.688;2022-12-07T04:05:07;-0.40;99.90
22153;DHT22;11242;50.536;12.688;2022-12-07T04:07:33;-0.40;99.90
22153;DHT22;11242;50.536;12.688;2022-12-07T04:09:58;-0.30;99.90
22153;DHT22;11242;50.536;12.688;2022-12-07T04:12:27;-0.30;99.90
22153;DHT22;11242;50.536;12.688;2022-12-07T04:14:52;-0.30;99.90
22153;DHT22;11242;50.536;12.688;2022-12-07T04:17:18;-0.20;99.90
22153;DHT22;11242;50.536;12.688;2022-12-07T04:19:43;-0.20;99.90
22153;DHT22;11242;50.536;12.688;2022-12-07T04:22:09;-0.20;99.90
22153;DHT22;11242;50.536;12.688;2022-12-07T04:24:35;-0.10;99.90
22153;DHT22;11242;50.536;12.688;2022-12-07T04:27:01;-0.10;99.90
22153;DHT22;11242;50.536;12.688;2022-12-07T04:29:26;-0.10;99.90
22153;DHT22;11242;50.536;12.688;2022-12-07T04:31:52;-0.10;99.90
22153;DHT22;11242;50.536;12.688;2022-12-07T04:34:18;-0.10;99.90
22153;DHT22;11242;50.536;12.688;2022-12-07T04:36:45;-0.10;99.90
22153;DHT22;11242;50.536;12.688;2022-12-07T04:39:22;-0.20;99.90
22153;DHT22;11242;50.536;12.688;2022-12-07T04:41:48;-0.30;99.90
22153;DHT22;11242;50.536;12.688;2022-12-07T04:44:14;-0.40;99.90
22153;DHT22;11242;50.536;12.688;2022-12-07T04:46:40;-0.30;99.90
22153;DHT22;11242;50.536;12.688;2022-12-07T04:49:06;-0.30;99.90
22153;DHT22;11242;50.536;12.688;2022-12-07T04:51:32;-0.30;99.90
22153;DHT22;11242;50.536;12.688;2022-12-07T04:53:58;-0.20;99.90
22153;DHT22;11242;50.536;12.688;2022-12-07T04:56:27;-0.20;99.90
22153;DHT22;11242;50.536;12.688;2022-12-07T04:58:53;-0.10;99.90
22153;DHT22;11242;50.536;12.688;2022-12-07T05:01:19;-0.10;99.90
22153;DHT22;11242;50.536;12.688;2022-12-07T05:03:46;0.00;99.90
22153;DHT22;11242;50.536;12.688;2022-12-07T05:06:12;0.10;99.90
22153;DHT22;11242;50.536;12.688;2022-12-07T05:08:38;0.10;99.90
22153;DHT22;11242;50.536;12.688;2022-12-07T05:11:06;0.20;99.90
22153;DHT22;11242;50.536;12.688;2022-12-07T05:13:32;0.20;99.90
22153;DHT22;11242;50.536;12.688;2022-12-07T05:15:58;0.30;99.90
22153;DHT22;11242;50.536;12.688;2022-12-07T05:18:25;0.30;99.90
22153;DHT22;11242;50.536;12.688;2022-12-07T05:20:50;0.30;99.90
22153;DHT22;11242;50.536;12.688;2022-12-07T05:23:16;0.30;99.90
22153;DHT22;11242;50.536;12.688;2022-12-07T05:25:42;0.30;99.90
22153;DHT22;11242;50.536;12.688;2022-12-07T05:28:08;0.30;99.90
22153;DHT22;11242;50.536;12.688;2022-12-07T05:30:34;0.40;99.90
22153;DHT22;11242;50.536;12.688;2022-12-07T05:33:00;0.40;99.90
22153;DHT22;11242;50.536;12.688;2022-12-07T05:35:25;0.40;99.90
22153;DHT22;11242;50.536;12.688;2022-12-07T05:37:51;0.50;99.90
22153;DHT22;11242;50.536;12.688;2022-12-07T05:40:17;0.50;99.90
22153;DHT22;11242;50.536;12.688;2022-12-07T05:42:44;0.50;99.90
22153;DHT22;11242;50.536;12.688;2022-12-07T05:45:10;0.50;99.90
22153;DHT22;11242;50.536;12.688;2022-12-07T05:47:38;0.50;99.90
22153;DHT22;11242;50.536;12.688;2022-12-07T05:50:04;0.50;99.90
22153;DHT22;11242;50.536;12.688;2022-12-07T05:52:33;0.40;99.90
22153;DHT22;11242;50.536;12.688;2022-12-07T05:54:59;0.50;99.90
22153;DHT22;11242;50.536;12.688;2022-12-07T05:57:24;0.40;99.90
22153;DHT22;11242;50.536;12.688;2022-12-07T05:59:50;0.50;99.90
22153;DHT22;11242;50.536;12.688;2022-12-07T06:02:16;0.50;99.90
22153;DHT22;11242;50.536;12.688;2022-12-07T06:04:45;0.50;99.90
22153;DHT22;11242;50.536;12.688;2022-12-07T06:07:12;0.50;99.90
22153;DHT22;11242;50.536;12.688;2022-12-07T06:09:39;0.50;99.90
22153;DHT22;11242;50.536;12.688;2022-12-07T06:12:05;0.50;99.90
22153;DHT22;11242;50.536;12.688;2022-12-07T06:14:49;0.50;99.90
22153;DHT22;11242;50.536;12.688;2022-12-07T06:17:15;0.50;99.90
22153;DHT22;11242;50.536;12.688;2022-12-07T06:19:41;0.50;99.90
22153;DHT22;11242;50.536;12.688;2022-12-07T06:22:07;0.50;99.90
22153;DHT22;11242;50.536;12.688;2022-12-07T06:24:34;0.50;99.90
22153;DHT22;11242;50.536;12.688;2022-12-07T06:27:00;0.50;99.90
22153;DHT22;11242;50.536;12.688;2022-12-07T06:29:26;0.50;99.90
22153;DHT22;11242;50.536;12.688;2022-12-07T06:31:52;0.50;99.90
22153;DHT22;11242;50.536;12.688;2022-12-07T06:34:21;0.50;99.90
22153;DHT22;11242;50.536;12.688;2022-12-07T06:36:48;0.50;99.90
22153;DHT22;11242;50.536;12.688;2022-12-07T06:39:18;0.60;99.90
22153;DHT22;11242;50.536;12.688;2022-12-07T06:41:44;0.60;99.90
22153;DHT22;11242;50.536;12.688;2022-12-07T06:44:10;0.60;99.90
22153;DHT22;11242;50.536;12.688;2022-12-07T06:46:35;0.70;99.90
22153;DHT22;11242;50.536;12.688;2022-12-07T06:49:02;0.70;99.90
22153;DHT22;11242;50.536;12.688;2022-12-07T06:51:27;0.70;99.90
22153;DHT22;11242;50.536;12.688;2022-12-07T06:53:53;0.70;99.90
22153;DHT22;11242;50.536;12.688;2022-12-07T06:56:19;0.80;99.90
22153;DHT22;11242;50.536;12.688;2022-12-07T06:58:45;0.80;99.90
22153;DHT22;11242;50.536;12.688;2022-12-07T07:01:15;0.90;99.90
22153;DHT22;11242;50.536;12.688;2022-12-07T07:03:41;0.90;99.90
22153;DHT22;11242;50.536;12.688;2022-12-07T07:06:08;0.90;99.90
22153;DHT22;11242;50.536;12.688;2022-12-07T07:08:34;0.90;99.90
22153;DHT22;11242;50.536;12.688;2022-12-07T07:11:01;0.90;99.90
22153;DHT22;11242;50.536;12.688;2022-12-07T07:13:27;0.90;99.90
22153;DHT22;11242;50.536;12.688;2022-12-07T07:15:53;1.00;99.90
22153;DHT22;11242;50.536;12.688;2022-12-07T07:18:22;1.00;99.90
22153;DHT22;11242;50.536;12.688;2022-12-07T07:20:48;1.00;99.90
22153;DHT22;11242;50.536;12.688;2022-12-07T07:23:15;1.00;99.90
22153;DHT22;11242;50.536;12.688;2022-12-07T07:25:40;0.90;99.90
22153;DHT22;11242;50.536;12.688;2022-12-07T07:28:06;1.00;99.90
22153;DHT22;11242;50.536;12.688;2022-12-07T07:30:31;1.00;99.90
22153;DHT22;11242;50.536;12.688;2022-12-07T07:32:58;1.00;99.90
22153;DHT22;11242;50.536;12.688;2022-12-07T07:35:25;0.90;99.90
22153;DHT22;11242;50.536;12.688;2022-12-07T07:37:51;1.00;99.90
22153;DHT22;11242;50.536;12.688;2022-12-07T07:40:16;1.00;99.90
22153;DHT22;11242;50.536;12.688;2022-12-07T07:42:42;1.00;99.90
22153;DHT22;11242;50.536;12.688;2022-12-07T07:45:08;1.00;99.90
22153;DHT22;11242;50.536;12.688;2022-12-07T07:47:34;1.00;99.90
22153;DHT22;11242;50.536;12.688;2022-12-07T07:49:59;1.00;99.90
22153;DHT22;11242;50.536;12.688;2022-12-07T07:52:26;1.10;99.90
22153;DHT22;11242;50.536;12.688;2022-12-07T07:54:52;1.10;99.90
22153;DHT22;11242;50.536;12.688;2022-12-07T07:57:18;1.10;99.90
22153;DHT22;11242;50.536;12.688;2022-12-07T07:59:43;1.10;99.90
22153;DHT22;11242;50.536;12.688;2022-12-07T08:02:14;1.00;99.90
22153;DHT22;11242;50.536;12.688;2022-12-07T08:04:40;1.00;99.90
22153;DHT22;11242;50.536;12.688;2022-12-07T08:07:06;1.00;99.90
22153;DHT22;11242;50.536;12.688;2022-12-07T08:09:32;1.10;99.90
22153;DHT22;11242;50.536;12.688;2022-12-07T08:11:57;1.10;99.90
22153;DHT22;11242;50.536;12.688;2022-12-07T08:14:27;1.10;99.90
22153;DHT22;11242;50.536;12.688;2022-12-07T08:16:54;1.20;99.90
22153;DHT22;11242;50.536;12.688;2022-12-07T08:19:19;1.20;99.90
22153;DHT22;11242;50.536;12.688;2022-12-07T08:21:45;1.10;99.90
22153;DHT22;11242;50.536;12.688;2022-12-07T08:24:11;1.10;99.90
22153;DHT22;11242;50.536;12.688;2022-12-07T08:26:36;1.10;99.90
22153;DHT22;11242;50.536;12.688;2022-12-07T08:29:02;1.00;99.90
22153;DHT22;11242;50.536;12.688;2022-12-07T08:31:28;1.10;99.90
22153;DHT22;11242;50.536;12.688;2022-12-07T08:33:54;1.10;99.90
22153;DHT22;11242;50.536;12.688;2022-12-07T08:36:20;1.10;99.90
22153;DHT22;11242;50.536;12.688;2022-12-07T08:38:47;1.20;99.90
22153;DHT22;11242;50.536;12.688;2022-12-07T08:41:12;1.20;99.90
22153;DHT22;11242;50.536;12.688;2022-12-07T08:43:38;1.20;99.90
22153;DHT22;11242;50.536;12.688;2022-12-07T08:49:11;1.20;99.90
22153;DHT22;11242;50.536;12.688;2022-12-07T08:51:35;1.20;99.90
22153;DHT22;11242;50.536;12.688;2022-12-07T08:54:07;1.30;99.90
22153;DHT22;11242;50.536;12.688;2022-12-07T08:56:34;1.30;99.90
22153;DHT22;11242;50.536;12.688;2022-12-07T08:59:00;1.40;99.90
22153;DHT22;11242;50.536;12.688;2022-12-07T09:01:25;1.50;99.90
22153;DHT22;11242;50.536;12.688;2022-12-07T09:03:52;1.60;99.90
22153;DHT22;11242;50.536;12.688;2022-12-07T09:06:18;1.70;99.90
22153;DHT22;11242;50.536;12.688;2022-12-07T09:08:47;1.80;99.90
22153;DHT22;11242;50.536;12.688;2022-12-07T09:11:14;1.90;99.90
22153;DHT22;11242;50.536;12.688;2022-12-07T09:13:39;1.90;99.90
22153;DHT22;11242;50.536;12.688;2022-12-07T09:16:05;2.00;99.90
22153;DHT22;11242;50.536;12.688;2022-12-07T09:18:31;2.00;99.90
22153;DHT22;11242;50.536;12.688;2022-12-07T09:20:57;1.90;99.90
22153;DHT22;11242;50.536;12.688;2022-12-07T09:23:22;1.90;99.90
22153;DHT22;11242;50.536;12.688;2022-12-07T09:25:48;1.90;99.90
22153;DHT22;11242;50.536;12.688;2022-12-07T09:28:14;1.80;99.90
22153;DHT22;11242;50.536;12.688;2022-12-07T09:30:46;1.90;99.90
22153;DHT22;11242;50.536;12.688;2022-12-07T09:33:12;1.90;99.90
22153;DHT22;11242;50.536;12.688;2022-12-07T09:35:37;2.10;99.90
22153;DHT22;11242;50.536;12.688;2022-12-07T09:38:03;2.30;99.90
22153;DHT22;11242;50.536;12.688;2022-12-07T09:40:29;2.40;99.90
22153;DHT22;11242;50.536;12.688;2022-12-07T09:42:55;2.50;99.90
22153;DHT22;11242;50.536;12.688;2022-12-07T09:45:40;2.60;99.90
22153;DHT22;11242;50.536;12.688;2022-12-07T09:48:18;2.70;99.90
22153;DHT22;11242;50.536;12.688;2022-12-07T09:50:46;2.70;99.90
22153;DHT22;11242;50.536;12.688;2022-12-07T09:53:24;2.70;99.90
22153;DHT22;11242;50.536;12.688;2022-12-07T09:55:51;2.80;99.90
22153;DHT22;11242;50.536;12.688;2022-12-07T09:58:22;2.80;99.90
22153;DHT22;11242;50.536;12.688;2022-12-07T10:00:53;2.90;99.90
22153;DHT22;11242;50.536;12.688;2022-12-07T10:03:20;2.80;99.90
22153;DHT22;11242;50.536;12.688;2022-12-07T10:05:49;2.80;99.90
22153;DHT22;11242;50.536;12.688;2022-12-07T10:08:17;2.70;99.90
22153;DHT22;11242;50.536;12.688;2022-12-07T10:10:44;2.70;99.90
22153;DHT22;11242;50.536;12.688;2022-12-07T10:13:17;2.80;99.90
22153;DHT22;11242;50.536;12.688;2022-12-07T10:18:35;3.20;99.90
22153;DHT22;11242;50.536;12.688;2022-12-07T10:21:13;3.20;99.90
22153;DHT22;11242;50.536;12.688;2022-12-07T10:24:00;3.20;99.90
22153;DHT22;11242;50.536;12.688;2022-12-07T10:26:36;3.10;99.90
22153;DHT22;11242;50.536;12.688;2022-12-07T10:29:32;3.10;99.90
22153;DHT22;11242;50.536;12.688;2022-12-07T10:32:05;3.00;99.90
22153;DHT22;11242;50.536;12.688;2022-12-07T10:34:37;3.10;99.90
22153;DHT22;11242;50.536;12.688;2022-12-07T10:39:43;3.10;99.90
22153;DHT22;11242;50.536;12.688;2022-12-07T10:44:50;3.10;99.90
22153;DHT22;11242;50.536;12.688;2022-12-07T10:52:47;3.10;99.90
22153;DHT22;11242;50.536;12.688;2022-12-07T11:06:24;3.20;99.90
22153;DHT22;11242;50.536;12.688;2022-12-07T11:23:18;3.30;99.90
22153;DHT22;11242;50.536;12.688;2022-12-07T11:29:19;3.00;99.90
22153;DHT22;11242;50.536;12.688;2022-12-07T11:32:03;3.20;99.90
22153;DHT22;11242;50.536;12.688;2022-12-07T11:34:45;3.10;99.90
22153;DHT22;11242;50.536;12.688;2022-12-07T11:37:19;3.00;99.90
22153;DHT22;11242;50.536;12.688;2022-12-07T11:39:55;3.00;99.90
22153;DHT22;11242;50.536;12.688;2022-12-07T11:42:29;2.80;99.90
22153;DHT22;11242;50.536;12.688;2022-12-07T11:45:03;2.60;99.90
22153;DHT22;11242;50.536;12.688;2022-12-07T11:47:47;2.50;99.90
22153;DHT22;11242;50.536;12.688;2022-12-07T11:56:00;2.60;99.90
22153;DHT22;11242;50.536;12.688;2022-12-07T12:01:31;2.70;99.90
22153;DHT22;11242;50.536;12.688;2022-12-07T12:04:22;2.70;99.90
22153;DHT22;11242;50.536;12.688;2022-12-07T12:06:49;2.70;99.90
22153;DHT22;11242;50.536;12.688;2022-12-07T12:09:17;2.70;99.90
22153;DHT22;11242;50.536;12.688;2022-12-07T12:15:06;2.60;99.90
22153;DHT22;11242;50.536;12.688;2022-12-07T12:18:05;2.50;99.90
22153;DHT22;11242;50.536;12.688;2022-12-07T12:20:58;2.50;99.90
22153;DHT22;11242;50.536;12.688;2022-12-07T12:23:42;2.40;99.90
22153;DHT22;11242;50.536;12.688;2022-12-07T12:26:26;2.50;99.90
22153;DHT22;11242;50.536;12.688;2022-12-07T12:28:56;2.50;99.90
22153;DHT22;11242;50.536;12.688;2022-12-07T12:33:55;2.50;99.90
22153;DHT22;11242;50.536;12.688;2022-12-07T12:50:21;2.30;99.90
22153;DHT22;11242;50.536;12.688;2022-12-07T12:53:03;2.30;99.90
22153;DHT22;11242;50.536;12.688;2022-12-07T12:55:45;2.20;99.90
22153;DHT22;11242;50.536;12.688;2022-12-07T13:00:46;1.90;99.90
22153;DHT22;11242;50.536;12.688;2022-12-07T13:03:26;1.90;99.90
22153;DHT22;11242;50.536;12.688;2022-12-07T13:08:42;1.80;99.90
22153;DHT22;11242;50.536;12.688;2022-12-07T13:11:29;1.70;99.90
22153;DHT22;11242;50.536;12.688;2022-12-07T13:16:59;1.60;99.90
22153;DHT22;11242;50.536;12.688;2022-12-07T13:25:30;2.10;99.90
22153;DHT22;11242;50.536;12.688;2022-12-07T13:28:10;2.20;99.90
22153;DHT22;11242;50.536;12.688;2022-12-07T13:30:47;2.20;99.90
22153;DHT22;11242;50.536;12.688;2022-12-07T13:33:17;2.10;99.90
22153;DHT22;11242;50.536;12.688;2022-12-07T13:35:44;2.10;99.90
22153;DHT22;11242;50.536;12.688;2022-12-07T13:38:25;2.10;99.90
22153;DHT22;11242;50.536;12.688;2022-12-07T13:41:25;2.10;99.90
22153;DHT22;11242;50.536;12.688;2022-12-07T13:44:15;2.20;99.90
22153;DHT22;11242;50.536;12.688;2022-12-07T13:49:27;2.10;99.90
22153;DHT22;11242;50.536;12.688;2022-12-07T13:52:06;2.10;99.90
22153;DHT22;11242;50.536;12.688;2022-12-07T13:54:44;2.10;99.90
22153;DHT22;11242;50.536;12.688;2022-12-07T13:57:10;2.10;99.90
22153;DHT22;11242;50.536;12.688;2022-12-07T13:59:36;2.10;99.90
22153;DHT22;11242;50.536;12.688;2022-12-07T14:02:18;2.10;99.90
22153;DHT22;11242;50.536;12.688;2022-12-07T14:04:45;2.00;99.90
22153;DHT22;11242;50.536;12.688;2022-12-07T14:07:28;2.00;99.90
22153;DHT22;11242;50.536;12.688;2022-12-07T14:09:55;1.90;99.90
22153;DHT22;11242;50.536;12.688;2022-12-07T14:12:22;1.90;99.90
22153;DHT22;11242;50.536;12.688;2022-12-07T14:14:48;1.80;99.90
22153;DHT22;11242;50.536;12.688;2022-12-07T14:17:30;1.80;99.90
22153;DHT22;11242;50.536;12.688;2022-12-07T14:19:58;1.90;99.90
22153;DHT22;11242;50.536;12.688;2022-12-07T14:22:31;1.90;99.90
22153;DHT22;11242;50.536;12.688;2022-12-07T14:25:20;1.80;99.90
22153;DHT22;11242;50.536;12.688;2022-12-07T14:27:59;1.80;99.90
22153;DHT22;11242;50.536;12.688;2022-12-07T14:30:33;1.90;99.90
22153;DHT22;11242;50.536;12.688;2022-12-07T14:33:03;1.80;99.90
22153;DHT22;11242;50.536;12.688;2022-12-07T14:35:30;1.70;99.90
22153;DHT22;11242;50.536;12.688;2022-12-07T14:37:56;1.70;99.90
22153;DHT22;11242;50.536;12.688;2022-12-07T14:40:27;1.70;99.90
22153;DHT22;11242;50.536;12.688;2022-12-07T14:43:06;1.70;99.90
22153;DHT22;11242;50.536;12.688;2022-12-07T14:45:34;1.70;99.90
22153;DHT22;11242;50.536;12.688;2022-12-07T14:47:59;1.70;99.90
22153;DHT22;11242;50.536;12.688;2022-12-07T14:50:28;1.80;99.90
22153;DHT22;11242;50.536;12.688;2022-12-07T14:52:57;1.80;99.90
22153;DHT22;11242;50.536;12.688;2022-12-07T14:55:26;1.80;99.90
22153;DHT22;11242;50.536;12.688;2022-12-07T14:57:53;1.80;99.90
22153;DHT22;11242;50.536;12.688;2022-12-07T15:00:23;1.80;99.90
22153;DHT22;11242;50.536;12.688;2022-12-07T15:02:50;1.70;99.90
22153;DHT22;11242;50.536;12.688;2022-12-07T15:05:16;1.70;99.90
22153;DHT22;11242;50.536;12.688;2022-12-07T15:07:43;1.60;99.90
22153;DHT22;11242;50.536;12.688;2022-12-07T15:10:21;1.70;99.90
22153;DHT22;11242;50.536;12.688;2022-12-07T15:12:46;1.70;99.90
22153;DHT22;11242;50.536;12.688;2022-12-07T15:15:13;1.70;99.90
22153;DHT22;11242;50.536;12.688;2022-12-07T15:17:38;1.70;99.90
22153;DHT22;11242;50.536;12.688;2022-12-07T15:20:05;1.70;99.90
22153;DHT22;11242;50.536;12.688;2022-12-07T15:22:30;1.70;99.90
22153;DHT22;11242;50.536;12.688;2022-12-07T15:24:57;1.70;99.90
22153;DHT22;11242;50.536;12.688;2022-12-07T15:27:23;1.70;99.90
22153;DHT22;11242;50.536;12.688;2022-12-07T15:29:49;1.70;99.90
22153;DHT22;11242;50.536;12.688;2022-12-07T15:32:17;1.70;99.90
22153;DHT22;11242;50.536;12.688;2022-12-07T15:34:43;1.70;99.90
22153;DHT22;11242;50.536;12.688;2022-12-07T15:37:09;1.70;99.90
22153;DHT22;11242;50.536;12.688;2022-12-07T15:39:36;1.70;99.90
22153;DHT22;11242;50.536;12.688;2022-12-07T15:42:01;1.70;99.90
22153;DHT22;11242;50.536;12.688;2022-12-07T15:44:27;1.70;99.90
22153;DHT22;11242;50.536;12.688;2022-12-07T15:47:12;1.70;99.90
22153;DHT22;11242;50.536;12.688;2022-12-07T15:49:37;1.70;99.90
22153;DHT22;11242;50.536;12.688;2022-12-07T15:52:04;1.70;99.90
22153;DHT22;11242;50.536;12.688;2022-12-07T15:54:30;1.70;99.90
22153;DHT22;11242;50.536;12.688;2022-12-07T15:56:57;1.70;99.90
22153;DHT22;11242;50.536;12.688;2022-12-07T15:59:23;1.70;99.90
22153;DHT22;11242;50.536;12.688;2022-12-07T16:01:49;1.70;99.90
22153;DHT22;11242;50.536;12.688;2022-12-07T16:04:14;1.70;99.90
22153;DHT22;11242;50.536;12.688;2022-12-07T16:06:41;1.70;99.90
22153;DHT22;11242;50.536;12.688;2022-12-07T16:09:07;1.60;99.90
22153;DHT22;11242;50.536;12.688;2022-12-07T16:11:33;1.70;99.90
22153;DHT22;11242;50.536;12.688;2022-12-07T16:13:58;1.70;99.90
22153;DHT22;11242;50.536;12.688;2022-12-07T16:16:24;1.60;99.90
22153;DHT22;11242;50.536;12.688;2022-12-07T16:18:51;1.60;99.90
22153;DHT22;11242;50.536;12.688;2022-12-07T16:21:17;1.60;99.90
22153;DHT22;11242;50.536;12.688;2022-12-07T16:23:43;1.70;99.90
22153;DHT22;11242;50.536;12.688;2022-12-07T16:26:14;1.60;99.90
22153;DHT22;11242;50.536;12.688;2022-12-07T16:28:40;1.60;99.90
22153;DHT22;11242;50.536;12.688;2022-12-07T16:31:08;1.60;99.90
22153;DHT22;11242;50.536;12.688;2022-12-07T16:33:36;1.60;99.90
22153;DHT22;11242;50.536;12.688;2022-12-07T16:36:07;1.60;99.90
22153;DHT22;11242;50.536;12.688;2022-12-07T16:38:33;1.60;99.90
22153;DHT22;11242;50.536;12.688;2022-12-07T16:40:59;1.50;99.90
22153;DHT22;11242;50.536;12.688;2022-12-07T16:43:25;1.50;99.90
22153;DHT22;11242;50.536;12.688;2022-12-07T16:45:51;1.50;99.90
22153;DHT22;11242;50.536;12.688;2022-12-07T16:48:17;1.60;99.90
22153;DHT22;11242;50.536;12.688;2022-12-07T16:50:44;1.60;99.90
22153;DHT22;11242;50.536;12.688;2022-12-07T16:53:10;1.70;99.90
22153;DHT22;11242;50.536;12.688;2022-12-07T16:55:41;1.50;99.90
22153;DHT22;11242;50.536;12.688;2022-12-07T16:58:07;1.50;99.90
22153;DHT22;11242;50.536;12.688;2022-12-07T17:00:34;1.60;99.90
22153;DHT22;11242;50.536;12.688;2022-12-07T17:02:59;1.60;99.90
22153;DHT22;11242;50.536;12.688;2022-12-07T17:05:27;1.60;99.90
22153;DHT22;11242;50.536;12.688;2022-12-07T17:07:59;1.60;99.90
22153;DHT22;11242;50.536;12.688;2022-12-07T17:10:25;1.60;99.90
22153;DHT22;11242;50.536;12.688;2022-12-07T17:12:51;1.60;99.90
22153;DHT22;11242;50.536;12.688;2022-12-07T17:15:17;1.60;99.90
22153;DHT22;11242;50.536;12.688;2022-12-07T17:17:45;1.60;99.90
22153;DHT22;11242;50.536;12.688;2022-12-07T17:20:11;1.60;99.90
22153;DHT22;11242;50.536;12.688;2022-12-07T17:22:37;1.60;99.90
22153;DHT22;11242;50.536;12.688;2022-12-07T17:25:04;1.60;99.90
22153;DHT22;11242;50.536;12.688;2022-12-07T17:27:30;1.50;99.90
22153;DHT22;11242;50.536;12.688;2022-12-07T17:29:59;1.40;99.90
22153;DHT22;11242;50.536;12.688;2022-12-07T17:32:24;1.50;99.90
22153;DHT22;11242;50.536;12.688;2022-12-07T17:34:50;1.40;99.90
22153;DHT22;11242;50.536;12.688;2022-12-07T17:37:15;1.40;99.90
22153;DHT22;11242;50.536;12.688;2022-12-07T17:39:41;1.40;99.90
22153;DHT22;11242;50.536;12.688;2022-12-07T17:42:08;1.40;99.90